createdAt,value
2022-08-03T00:01:28.047Z,2.50
2022-08-03T00:03:55.003Z,3.00
2022-08-03T00:06:21.849Z,2.10
2022-08-03T00:08:48.733Z,2.30
2022-08-03T00:11:15.596Z,2.20
2022-08-03T00:13:42.801Z,2.20
2022-08-03T00:16:10.389Z,2.40
2022-08-03T00:18:37.602Z,4.10
2022-08-03T00:21:05.194Z,3.80
2022-08-03T00:23:51.498Z,3.90
2022-08-03T00:26:20.701Z,3.10
2022-08-03T00:28:48.649Z,3.00
2022-08-03T00:31:15.602Z,3.20
2022-08-03T00:33:58.877Z,2.60
2022-08-03T00:36:27.478Z,2.60
2022-08-03T00:38:55.669Z,2.00
2022-08-03T00:41:22.896Z,2.60
2022-08-03T00:43:50.245Z,1.90
2022-08-03T00:46:21.412Z,2.20
2022-08-03T00:48:53.507Z,1.90
2022-08-03T00:51:21.910Z,2.00
2022-08-03T00:53:49.537Z,2.30
2022-08-03T00:56:17.090Z,2.30
2022-08-03T00:58:46.215Z,1.90
2022-08-03T01:01:13.910Z,2.10
2022-08-03T01:03:41.174Z,1.80
2022-08-03T01:06:20.164Z,1.70
2022-08-03T01:09:09.243Z,1.90
2022-08-03T01:11:59.819Z,2.00
2022-08-03T01:14:44.018Z,1.70
2022-08-03T01:17:38.845Z,1.70
2022-08-03T01:20:09.558Z,2.00
2022-08-03T01:23:10.369Z,1.60
2022-08-03T01:26:08.702Z,1.60
2022-08-03T01:29:10.712Z,2.00
2022-08-03T01:33:00.186Z,1.70
2022-08-03T01:34:41.884Z,1.30
2022-08-03T01:37:11.753Z,1.50
2022-08-03T01:39:40.506Z,1.30
2022-08-03T01:42:11.014Z,1.70
2022-08-03T01:44:42.544Z,1.70
2022-08-03T01:47:12.546Z,1.70
2022-08-03T01:49:44.469Z,1.90
2022-08-03T01:52:13.979Z,2.10
2022-08-03T01:54:45.001Z,1.90
2022-08-03T01:57:13.572Z,1.60
2022-08-03T01:59:42.768Z,1.80
2022-08-03T02:02:29.202Z,1.60
2022-08-03T02:05:01.534Z,1.80
2022-08-03T02:07:30.023Z,1.80
2022-08-03T02:09:59.011Z,1.70
2022-08-03T02:12:28.567Z,1.60
2022-08-03T02:14:57.616Z,1.60
2022-08-03T02:17:38.647Z,2.00
2022-08-03T02:20:10.767Z,1.70
2022-08-03T02:22:42.317Z,2.00
2022-08-03T02:25:11.767Z,1.80
2022-08-03T02:28:07.884Z,1.50
2022-08-03T02:30:38.981Z,2.00
2022-08-03T02:33:13.698Z,1.70
2022-08-03T02:35:42.296Z,1.40
2022-08-03T02:38:12.209Z,1.30
2022-08-03T02:40:42.744Z,1.40
2022-08-03T02:43:17.031Z,1.60
2022-08-03T02:45:46.935Z,1.40
2022-08-03T02:48:18.318Z,1.60
2022-08-03T02:50:47.031Z,1.50
2022-08-03T02:53:16.464Z,1.40
2022-08-03T02:55:46.231Z,1.80
2022-08-03T02:58:14.119Z,1.70
2022-08-03T03:00:44.121Z,1.30
2022-08-03T03:03:12.028Z,1.20
2022-08-03T03:05:53.360Z,1.40
2022-08-03T03:08:28.329Z,1.30
2022-08-03T03:10:59.317Z,1.20
2022-08-03T03:13:28.996Z,1.60
2022-08-03T03:16:00.861Z,1.30
2022-08-03T03:18:28.953Z,1.60
2022-08-03T03:20:57.646Z,1.50
2022-08-03T03:23:26.357Z,1.40
2022-08-03T03:25:55.458Z,1.50
2022-08-03T03:28:24.097Z,1.40
2022-08-03T03:30:52.711Z,1.50
2022-08-03T03:33:21.838Z,1.50
2022-08-03T03:35:49.353Z,1.70
2022-08-03T03:38:16.261Z,1.40
2022-08-03T03:40:43.402Z,1.40
2022-08-03T03:43:11.830Z,1.30
2022-08-03T03:45:42.212Z,1.70
2022-08-03T03:48:09.276Z,1.60
2022-08-03T03:50:37.132Z,1.40
2022-08-03T03:53:04.389Z,1.70
2022-08-03T03:55:31.461Z,1.40
2022-08-03T03:57:58.305Z,1.60
2022-08-03T04:00:25.277Z,1.50
2022-08-03T04:02:52.224Z,1.80
2022-08-03T04:05:37.779Z,1.80
2022-08-03T04:08:30.298Z,1.70
2022-08-03T04:11:30.118Z,1.70
2022-08-03T04:14:08.133Z,1.50
2022-08-03T04:16:43.108Z,1.60
2022-08-03T04:19:23.441Z,1.60
2022-08-03T04:21:57.084Z,1.70
2022-08-03T04:24:31.096Z,1.50
2022-08-03T04:27:00.714Z,1.60
2022-08-03T04:29:30.666Z,1.60
2022-08-03T04:32:00.105Z,2.10
2022-08-03T04:34:27.670Z,1.70
2022-08-03T04:37:00.081Z,1.80
2022-08-03T04:39:31.795Z,1.50
2022-08-03T04:42:07.900Z,1.60
2022-08-03T04:44:46.329Z,1.90
2022-08-03T04:47:13.583Z,1.50
2022-08-03T04:49:40.845Z,1.80
2022-08-03T04:52:09.301Z,1.80
2022-08-03T04:54:45.861Z,1.90
2022-08-03T04:57:23.192Z,2.20
2022-08-03T05:00:02.131Z,1.80
2022-08-03T05:02:31.499Z,1.90
2022-08-03T05:04:58.610Z,2.30
2022-08-03T05:07:25.675Z,1.70
2022-08-03T05:10:01.610Z,1.90
2022-08-03T05:12:32.733Z,1.80
2022-08-03T05:15:01.622Z,2.00
2022-08-03T05:17:28.585Z,1.80
2022-08-03T05:19:55.797Z,2.30
2022-08-03T05:22:23.453Z,1.90
2022-08-03T05:24:50.353Z,2.00
2022-08-03T05:27:18.768Z,2.00
2022-08-03T05:29:46.787Z,2.10
2022-08-03T05:32:15.381Z,2.10
2022-08-03T05:34:42.706Z,1.90
2022-08-03T05:37:10.256Z,1.90
2022-08-03T05:39:37.582Z,2.20
2022-08-03T05:42:04.468Z,2.60
2022-08-03T05:44:33.734Z,1.80
2022-08-03T05:47:00.496Z,1.90
2022-08-03T05:49:27.530Z,2.10
2022-08-03T05:52:00.471Z,2.30
2022-08-03T05:54:56.897Z,2.20
2022-08-03T05:57:24.630Z,2.10
2022-08-03T05:59:55.662Z,2.20
2022-08-03T06:02:26.810Z,2.30
2022-08-03T06:04:54.173Z,2.30
2022-08-03T06:07:21.118Z,2.30
2022-08-03T06:10:36.356Z,2.30
2022-08-03T06:12:35.577Z,2.10
2022-08-03T06:15:04.311Z,2.40
2022-08-03T06:17:37.437Z,2.50
2022-08-03T06:20:05.830Z,2.50
2022-08-03T06:22:33.067Z,2.30
2022-08-03T06:25:03.479Z,2.50
2022-08-03T06:27:36.625Z,2.20
2022-08-03T06:30:04.980Z,2.20
2022-08-03T06:32:33.058Z,2.10
2022-08-03T06:35:00.490Z,2.10
2022-08-03T06:37:28.209Z,2.20
2022-08-03T06:39:55.010Z,2.50
2022-08-03T06:42:22.673Z,2.40
2022-08-03T06:44:49.634Z,2.40
2022-08-03T06:47:16.687Z,2.00
2022-08-03T06:49:43.596Z,2.30
2022-08-03T06:52:37.426Z,2.10
2022-08-03T06:55:06.339Z,2.10
2022-08-03T06:57:33.187Z,2.80
2022-08-03T07:00:10.148Z,2.40
2022-08-03T07:02:39.447Z,2.30
2022-08-03T07:05:08.481Z,2.40
2022-08-03T07:07:35.727Z,2.60
2022-08-03T07:10:04.681Z,2.30
2022-08-03T07:12:32.364Z,2.60
2022-08-03T07:15:02.563Z,2.30
2022-08-03T07:17:32.502Z,2.30
2022-08-03T07:20:01.884Z,2.20
2022-08-03T07:22:28.814Z,2.60
2022-08-03T07:24:56.215Z,2.80
2022-08-03T07:27:23.538Z,2.30
2022-08-03T07:29:50.324Z,2.50
2022-08-03T07:32:17.447Z,2.70
2022-08-03T07:34:44.367Z,2.30
2022-08-03T07:37:11.252Z,2.40
2022-08-03T07:39:38.023Z,2.60
2022-08-03T07:42:05.064Z,2.50
2022-08-03T07:44:31.998Z,2.60
2022-08-03T07:46:58.826Z,2.70
2022-08-03T07:49:30.322Z,2.40
2022-08-03T07:52:16.880Z,2.50
2022-08-03T07:54:44.352Z,2.40
2022-08-03T07:57:11.261Z,2.80
2022-08-03T07:59:56.654Z,2.60
2022-08-03T08:02:26.628Z,2.60
2022-08-03T08:04:53.467Z,2.70
2022-08-03T08:07:20.712Z,2.60
2022-08-03T08:09:47.647Z,2.40
2022-08-03T08:12:15.512Z,2.70
2022-08-03T08:14:46.121Z,2.80
2022-08-03T08:17:14.313Z,2.50
2022-08-03T08:19:50.500Z,2.50
2022-08-03T08:22:19.737Z,2.50
2022-08-03T08:24:56.507Z,2.60
2022-08-03T08:27:23.937Z,2.80
2022-08-03T08:29:55.270Z,3.00
2022-08-03T08:32:23.393Z,2.70
2022-08-03T08:34:50.404Z,2.70
2022-08-03T08:37:17.303Z,2.90
2022-08-03T08:39:44.086Z,2.70
2022-08-03T08:42:11.059Z,2.50
2022-08-03T08:44:37.815Z,2.90
2022-08-03T08:47:05.656Z,2.90
2022-08-03T08:49:37.654Z,2.60
2022-08-03T08:52:25.110Z,2.40
2022-08-03T08:55:00.143Z,2.60
2022-08-03T08:57:42.719Z,2.40
2022-08-03T09:00:14.681Z,2.70
2022-08-03T09:02:45.850Z,2.60
2022-08-03T09:05:18.374Z,2.60
2022-08-03T09:07:47.714Z,2.10
2022-08-03T09:12:51.864Z,2.20
2022-08-03T09:15:19.687Z,2.20
2022-08-03T09:17:50.874Z,2.30
2022-08-03T09:20:20.123Z,2.20
2022-08-03T09:23:14.039Z,2.30
2022-08-03T09:25:59.801Z,1.90
2022-08-03T09:28:57.986Z,2.20
2022-08-03T09:31:46.034Z,2.10
2022-08-03T09:34:15.853Z,2.20
2022-08-03T09:36:48.818Z,2.20
2022-08-03T09:39:19.135Z,1.80
2022-08-03T09:41:52.869Z,2.20
2022-08-03T09:44:35.380Z,2.20
2022-08-03T09:47:02.291Z,2.30
2022-08-03T09:49:29.131Z,2.00
2022-08-03T09:52:31.452Z,1.90
2022-08-03T09:54:42.943Z,2.20
2022-08-03T09:57:27.475Z,2.20
2022-08-03T10:00:08.363Z,2.10
2022-08-03T10:02:37.164Z,2.20
2022-08-03T10:05:06.184Z,2.00
2022-08-03T10:07:45.909Z,2.30
2022-08-03T10:10:30.821Z,1.80
2022-08-03T10:12:59.706Z,2.30
2022-08-03T10:16:22.503Z,1.90
2022-08-03T10:18:14.623Z,2.20
2022-08-03T10:21:04.718Z,1.90
2022-08-03T10:23:35.391Z,1.70
2022-08-03T10:26:04.873Z,1.80
2022-08-03T10:28:45.306Z,1.80
2022-08-03T10:31:14.409Z,1.80
2022-08-03T10:33:51.613Z,1.90
2022-08-03T10:36:24.035Z,2.10
2022-08-03T10:38:53.545Z,2.20
2022-08-03T10:41:23.256Z,1.80
2022-08-03T10:43:56.568Z,1.70
2022-08-03T10:46:25.382Z,1.60
2022-08-03T10:48:55.992Z,1.50
2022-08-03T10:51:23.704Z,1.80
2022-08-03T10:53:54.625Z,1.90
2022-08-03T10:56:50.377Z,1.50
2022-08-03T11:00:00.225Z,3.40
2022-08-03T11:03:03.514Z,1.70
2022-08-03T11:05:37.021Z,1.30
2022-08-03T11:08:20.057Z,1.50
2022-08-03T11:10:49.294Z,1.40
2022-08-03T11:13:21.231Z,1.50
2022-08-03T11:15:53.272Z,1.30
2022-08-03T11:18:27.909Z,2.70
2022-08-03T11:20:57.624Z,1.80
2022-08-03T11:24:04.835Z,1.70
2022-08-03T11:26:29.275Z,1.50
2022-08-03T11:29:29.778Z,1.60
2022-08-03T11:31:57.402Z,1.80
2022-08-03T11:34:25.310Z,1.60
2022-08-03T11:37:22.970Z,1.60
2022-08-03T11:39:53.837Z,1.60
2022-08-03T11:42:23.729Z,1.40
2022-08-03T11:44:53.536Z,1.40
2022-08-03T11:47:22.418Z,1.50
2022-08-03T11:49:52.267Z,1.50
2022-08-03T11:52:19.479Z,1.40
2022-08-03T11:54:56.775Z,1.50
2022-08-03T11:59:01.055Z,1.40
2022-08-03T12:00:31.484Z,1.40
2022-08-03T12:03:11.478Z,1.40
2022-08-03T12:05:52.265Z,1.40
2022-08-03T12:08:33.628Z,1.50
2022-08-03T12:11:05.966Z,1.80
2022-08-03T12:14:08.861Z,1.70
2022-08-03T12:16:37.803Z,1.70
2022-08-03T12:19:08.429Z,1.50
2022-08-03T12:21:45.814Z,1.70
2022-08-03T12:24:27.746Z,1.60
2022-08-03T12:26:59.458Z,1.50
2022-08-03T12:29:27.261Z,1.70
2022-08-03T12:31:54.110Z,1.80
2022-08-03T12:34:20.992Z,1.50
2022-08-03T12:36:55.222Z,1.70
2022-08-03T12:39:31.065Z,1.90
2022-08-03T12:41:58.095Z,1.60
2022-08-03T12:44:34.427Z,1.50
2022-08-03T12:47:03.889Z,1.80
2022-08-03T12:49:46.142Z,1.50
2022-08-03T12:52:15.540Z,1.60
2022-08-03T12:54:45.242Z,1.70
2022-08-03T12:59:49.939Z,1.50
2022-08-03T13:02:27.036Z,1.50
2022-08-03T13:04:54.673Z,1.60
2022-08-03T13:07:22.499Z,1.30
2022-08-03T13:09:56.078Z,1.50
2022-08-03T13:12:25.960Z,1.80
2022-08-03T13:14:57.954Z,1.50
2022-08-03T13:17:26.191Z,1.90
2022-08-03T13:19:53.311Z,1.70
2022-08-03T13:22:21.964Z,1.80
2022-08-03T13:24:55.183Z,1.60
2022-08-03T13:28:01.630Z,1.30
2022-08-03T13:30:09.747Z,1.70
2022-08-03T13:32:36.558Z,1.70
2022-08-03T13:35:04.954Z,1.60
2022-08-03T13:37:32.544Z,1.50
2022-08-03T13:40:02.414Z,1.80
2022-08-03T13:42:32.248Z,1.70
2022-08-03T13:45:01.001Z,1.60
2022-08-03T13:47:28.301Z,1.50
2022-08-03T13:49:59.765Z,1.50
2022-08-03T13:52:34.390Z,2.30
2022-08-03T13:55:04.087Z,1.60
2022-08-03T13:58:04.187Z,1.60
2022-08-03T14:00:28.051Z,1.60
2022-08-03T14:03:06.560Z,1.50
2022-08-03T14:05:38.046Z,1.50
2022-08-03T14:08:06.662Z,1.50
2022-08-03T14:10:36.280Z,1.50
2022-08-03T14:13:04.523Z,1.40
2022-08-03T14:15:31.589Z,1.60
2022-08-03T14:17:59.002Z,1.40
2022-08-03T14:20:38.960Z,1.60
2022-08-03T14:23:16.018Z,1.40
2022-08-03T14:25:51.641Z,1.70
2022-08-03T14:28:23.966Z,1.70
2022-08-03T14:30:52.532Z,1.60
2022-08-03T14:33:20.006Z,1.40
2022-08-03T14:35:47.800Z,1.50
2022-08-03T14:38:15.208Z,1.50
2022-08-03T14:40:42.080Z,1.50
2022-08-03T14:43:09.008Z,1.50
2022-08-03T14:45:36.013Z,1.20
2022-08-03T14:50:33.784Z,1.50
2022-08-03T14:50:55.917Z,1.40
2022-08-03T14:53:22.870Z,1.50
2022-08-03T14:55:52.244Z,1.70
2022-08-03T14:58:21.485Z,1.60
2022-08-03T15:00:50.489Z,1.50
2022-08-03T15:03:22.341Z,1.40
2022-08-03T15:05:54.179Z,1.30
2022-08-03T15:08:23.007Z,1.40
2022-08-03T15:10:50.304Z,1.30
2022-08-03T15:13:18.925Z,1.50
2022-08-03T15:15:47.222Z,1.50
2022-08-03T15:18:14.012Z,1.60
2022-08-03T15:20:45.880Z,1.50
2022-08-03T15:23:16.293Z,1.50
2022-08-03T15:26:03.114Z,1.20
2022-08-03T15:28:32.128Z,1.70
2022-08-03T15:30:59.478Z,1.30
2022-08-03T15:33:26.267Z,1.40
2022-08-03T15:35:53.531Z,1.30
2022-08-03T15:38:25.811Z,1.70
2022-08-03T15:40:56.191Z,1.30
2022-08-03T15:43:23.875Z,1.50
2022-08-03T15:46:12.688Z,1.40
2022-08-03T15:48:38.632Z,1.60
2022-08-03T15:51:06.918Z,1.60
2022-08-03T15:53:34.222Z,1.40
2022-08-03T15:56:03.304Z,1.60
2022-08-03T15:59:03.615Z,1.20
2022-08-03T16:01:23.700Z,1.60
2022-08-03T16:03:51.723Z,1.10
2022-08-03T16:06:18.654Z,1.40
2022-08-03T16:08:56.807Z,1.30
2022-08-03T16:11:24.652Z,1.60
2022-08-03T16:14:11.857Z,1.40
2022-08-03T16:16:40.285Z,1.60
2022-08-03T16:19:07.282Z,1.40
2022-08-03T16:21:45.257Z,1.40
2022-08-03T16:24:19.739Z,1.30
2022-08-03T16:26:55.711Z,1.40
2022-08-03T16:29:23.716Z,1.20
2022-08-03T16:31:52.421Z,1.40
2022-08-03T16:34:20.441Z,1.80
2022-08-03T16:36:47.771Z,1.50
2022-08-03T16:39:14.885Z,1.60
2022-08-03T16:41:54.328Z,1.70
2022-08-03T16:44:30.078Z,1.60
2022-08-03T16:46:58.510Z,1.80
2022-08-03T16:49:55.030Z,1.50
2022-08-03T16:52:12.829Z,1.40
2022-08-03T16:54:40.142Z,1.40
2022-08-03T16:57:07.537Z,1.30
2022-08-03T16:59:36.966Z,1.60
2022-08-03T17:02:09.921Z,1.40
2022-08-03T17:04:40.300Z,1.40
2022-08-03T17:09:38.759Z,1.60
2022-08-03T17:12:07.229Z,1.30
2022-08-03T17:14:34.205Z,1.40
2022-08-03T17:17:06.034Z,1.40
2022-08-03T17:19:39.147Z,1.50
2022-08-03T17:22:19.646Z,1.50
2022-08-03T17:24:51.418Z,1.90
2022-08-03T17:28:48.531Z,1.50
2022-08-03T17:30:15.315Z,1.50
2022-08-03T17:32:56.576Z,1.70
2022-08-03T17:35:34.296Z,1.80
2022-08-03T17:38:06.657Z,1.80
2022-08-03T17:40:38.099Z,1.40
2022-08-03T17:44:13.708Z,1.60
2022-08-03T17:45:54.737Z,1.40
2022-08-03T17:48:25.254Z,1.70
2022-08-03T17:51:03.178Z,1.80
2022-08-03T17:53:37.707Z,1.30
2022-08-03T17:56:40.422Z,2.00
2022-08-03T17:59:50.943Z,1.70
2022-08-03T18:03:10.233Z,1.60
2022-08-03T18:06:11.534Z,1.20
2022-08-03T18:08:35.762Z,1.40
2022-08-03T18:11:14.405Z,1.40
2022-08-03T18:14:16.383Z,2.10
2022-08-03T18:16:52.293Z,1.60
2022-08-03T18:19:20.805Z,1.60
2022-08-03T18:22:09.992Z,1.80
2022-08-03T18:24:37.819Z,2.30
2022-08-03T18:27:06.566Z,2.10
2022-08-03T18:29:36.429Z,1.90
2022-08-03T18:32:13.010Z,1.70
2022-08-03T18:34:53.540Z,2.10
2022-08-03T18:40:12.026Z,1.50
2022-08-03T18:42:52.852Z,2.00
2022-08-03T18:45:57.183Z,1.60
2022-08-03T18:48:17.222Z,2.30
2022-08-03T18:51:02.439Z,3.40
2022-08-03T18:54:02.576Z,2.40
2022-08-03T18:56:52.760Z,2.20
2022-08-03T18:59:30.767Z,3.00
2022-08-03T19:02:56.060Z,3.30
2022-08-03T19:05:56.266Z,4.20
2022-08-03T19:08:28.636Z,3.70
2022-08-03T19:11:05.983Z,3.20
2022-08-03T19:13:50.691Z,3.30
2022-08-03T19:19:24.753Z,3.40
2022-08-03T19:21:51.869Z,3.90
2022-08-03T19:24:21.634Z,4.70
2022-08-03T19:26:52.253Z,4.00
2022-08-03T19:29:22.531Z,5.20
2022-08-03T19:31:58.899Z,5.90
2022-08-03T19:34:29.624Z,4.70
2022-08-03T19:36:58.001Z,5.30
2022-08-03T19:39:25.641Z,6.70
2022-08-03T19:41:58.032Z,5.50
2022-08-03T19:44:40.924Z,6.40
2022-08-03T19:47:19.424Z,7.40
2022-08-03T19:52:36.072Z,3.80
2022-08-03T19:55:09.567Z,3.20
2022-08-03T19:57:45.613Z,3.50
2022-08-03T20:00:13.930Z,3.40
2022-08-03T20:02:41.112Z,4.40
2022-08-03T20:05:15.056Z,3.90
2022-08-03T20:07:48.210Z,4.40
2022-08-03T20:10:17.421Z,3.90
2022-08-03T20:12:46.058Z,3.30
2022-08-03T20:15:13.054Z,2.90
2022-08-03T20:17:55.275Z,3.80
2022-08-03T20:20:32.115Z,5.60
2022-08-03T20:23:06.694Z,6.40
2022-08-03T20:25:48.864Z,5.90
2022-08-03T20:28:51.174Z,6.20
2022-08-03T20:31:21.658Z,5.40
2022-08-03T20:33:50.749Z,5.30
2022-08-03T20:36:18.927Z,5.20
2022-08-03T20:38:47.910Z,5.30
2022-08-03T20:41:16.565Z,5.10
2022-08-03T20:43:44.805Z,3.90
2022-08-03T20:46:29.483Z,3.70
2022-08-03T20:49:01.621Z,4.30
2022-08-03T20:51:49.497Z,3.10
2022-08-03T20:54:29.681Z,3.70
2022-08-03T20:57:03.885Z,4.20
2022-08-03T20:59:46.762Z,4.20
2022-08-03T21:02:19.503Z,4.00
2022-08-03T21:04:56.214Z,4.10
2022-08-03T21:07:24.603Z,4.00
2022-08-03T21:10:15.527Z,4.20
2022-08-03T21:12:43.367Z,4.00
2022-08-03T21:12:58.651Z,1.70
2022-08-03T21:13:01.805Z,3.50
2022-08-03T21:16:01.200Z,3.90
2022-08-03T21:18:05.776Z,3.50
2022-08-03T21:20:34.273Z,3.00
2022-08-03T21:23:01.089Z,3.40
2022-08-03T21:25:34.435Z,2.90
2022-08-03T21:28:01.584Z,3.00
2022-08-03T21:30:29.886Z,2.70
2022-08-03T21:32:57.891Z,3.00
2022-08-03T21:35:25.275Z,2.60
2022-08-03T21:38:10.925Z,2.80
2022-08-03T21:40:39.906Z,2.60
2022-08-03T21:43:07.448Z,2.30
2022-08-03T21:45:51.764Z,2.60
2022-08-03T21:48:21.034Z,2.30
2022-08-03T21:50:49.200Z,2.20
2022-08-03T21:53:17.069Z,2.60
2022-08-03T21:55:54.586Z,2.80
2022-08-03T21:58:31.237Z,2.70
2022-08-03T22:00:59.145Z,2.30
2022-08-03T22:03:26.223Z,2.20
2022-08-03T22:05:53.075Z,2.10
2022-08-03T22:08:34.371Z,2.30
2022-08-03T22:11:04.391Z,2.10
2022-08-03T22:13:43.073Z,2.10
2022-08-03T22:16:11.477Z,1.90
2022-08-03T22:18:41.957Z,2.20
2022-08-03T22:21:14.179Z,2.40
2022-08-03T22:23:50.201Z,1.70
2022-08-03T22:26:32.231Z,1.80
2022-08-03T22:29:07.537Z,1.50
2022-08-03T22:31:57.675Z,1.50
2022-08-03T22:34:26.610Z,1.50
2022-08-03T22:39:27.654Z,1.80
2022-08-03T22:41:58.191Z,1.90
2022-08-03T22:44:26.899Z,1.80
2022-08-03T22:46:54.951Z,1.70
2022-08-03T22:49:22.246Z,1.80
2022-08-03T22:51:51.666Z,1.80
2022-08-03T22:54:18.939Z,1.90
2022-08-03T22:56:46.530Z,2.10
2022-08-03T22:59:38.800Z,1.90
2022-08-03T23:02:19.900Z,2.30
2022-08-03T23:04:52.761Z,1.60
2022-08-03T23:07:29.896Z,2.00
2022-08-03T23:09:58.549Z,1.90
2022-08-03T23:12:28.964Z,2.40
2022-08-03T23:15:02.370Z,2.10
2022-08-03T23:17:31.544Z,2.30
2022-08-03T23:20:08.420Z,1.60
2022-08-03T23:22:39.217Z,1.70
2022-08-03T23:25:11.204Z,1.90
2022-08-03T23:27:41.554Z,1.80
2022-08-03T23:30:09.957Z,2.20
2022-08-03T23:32:37.585Z,1.90
2022-08-03T23:36:28.468Z,1.80
2022-08-03T23:38:22.641Z,1.70
2022-08-03T23:40:51.335Z,1.80
2022-08-03T23:43:45.042Z,1.90
2022-08-03T23:46:07.333Z,2.00
2022-08-03T23:48:34.126Z,2.10
2022-08-03T23:51:14.841Z,1.30
2022-08-03T23:53:57.606Z,1.60
2022-08-03T23:56:51.923Z,1.70
